createdAt,value
2017-06-17T00:00:48.906Z,75.10
2017-06-17T00:03:16.380Z,75.10
2017-06-17T00:05:43.881Z,75.30
2017-06-17T00:08:11.367Z,75.40
2017-06-17T00:10:39.793Z,75.10
2017-06-17T00:13:07.270Z,75.20
2017-06-17T00:15:34.738Z,75.40
2017-06-17T00:18:02.229Z,75.30
2017-06-17T00:20:29.698Z,75.30
2017-06-17T00:22:57.221Z,75.50
2017-06-17T00:25:24.699Z,75.70
2017-06-17T00:27:52.173Z,75.90
2017-06-17T00:30:19.673Z,75.50
2017-06-17T00:32:47.154Z,75.90
2017-06-17T00:35:16.574Z,75.70
2017-06-17T00:37:44.049Z,75.80
2017-06-17T00:40:11.554Z,76.20
2017-06-17T00:42:39.973Z,76.20
2017-06-17T00:45:07.457Z,76.20
2017-06-17T00:47:34.971Z,76.60
2017-06-17T00:50:03.406Z,76.20
2017-06-17T00:52:30.885Z,76.30
2017-06-17T00:54:58.381Z,76.50
2017-06-17T00:57:25.877Z,76.50
2017-06-17T00:59:53.393Z,76.70
2017-06-17T01:02:20.873Z,76.80
2017-06-17T01:04:49.310Z,76.70
2017-06-17T01:07:16.817Z,76.60
2017-06-17T01:09:44.297Z,76.60
2017-06-17T01:12:11.805Z,76.80
2017-06-17T01:14:39.281Z,76.80
2017-06-17T01:17:06.765Z,76.80
2017-06-17T01:19:35.286Z,77.00
2017-06-17T01:22:03.713Z,77.40
2017-06-17T01:24:31.234Z,77.50
2017-06-17T01:26:58.706Z,77.40
2017-06-17T01:29:26.186Z,77.40
2017-06-17T01:31:53.682Z,77.40
2017-06-17T01:34:21.553Z,77.40
2017-06-17T01:36:49.078Z,77.40
2017-06-17T01:39:16.574Z,77.30
2017-06-17T01:41:44.049Z,77.50
2017-06-17T01:44:11.961Z,77.40
2017-06-17T01:46:39.462Z,77.60
2017-06-17T01:49:06.938Z,77.70
2017-06-17T01:51:34.441Z,77.70
2017-06-17T01:54:02.856Z,77.70
2017-06-17T01:56:30.368Z,77.60
2017-06-17T01:58:57.849Z,78.00
2017-06-17T02:01:25.353Z,78.20
2017-06-17T02:03:52.837Z,78.70
2017-06-17T02:06:20.324Z,78.70
2017-06-17T02:08:47.829Z,79.00
2017-06-17T02:11:16.258Z,78.60
2017-06-17T02:13:43.754Z,79.00
2017-06-17T02:16:11.234Z,79.30
2017-06-17T02:18:38.745Z,79.20
2017-06-17T02:21:11.937Z,79.40
2017-06-17T02:23:39.449Z,79.10
2017-06-17T02:26:06.925Z,79.00
2017-06-17T02:28:34.414Z,78.80
2017-06-17T02:31:01.917Z,78.80
2017-06-17T02:33:29.411Z,78.90
2017-06-17T02:35:58.825Z,79.00
2017-06-17T02:38:27.218Z,78.90
2017-06-17T02:40:54.703Z,79.10
2017-06-17T02:43:22.201Z,78.90
2017-06-17T02:45:49.693Z,79.00
2017-06-17T02:48:17.201Z,78.80
2017-06-17T02:50:44.681Z,78.90
2017-06-17T02:53:13.102Z,79.00
2017-06-17T02:55:41.485Z,79.10
2017-06-17T02:58:08.965Z,79.10
2017-06-17T03:00:36.454Z,79.30
2017-06-17T03:03:05.914Z,79.40
2017-06-17T03:05:33.392Z,79.40
2017-06-17T03:08:00.893Z,79.30
2017-06-17T03:10:28.393Z,79.50
2017-06-17T03:12:55.874Z,79.40
2017-06-17T03:15:23.778Z,79.70
2017-06-17T03:17:51.262Z,79.70
2017-06-17T03:20:18.753Z,79.60
2017-06-17T03:22:46.653Z,79.80
2017-06-17T03:25:14.134Z,79.80
2017-06-17T03:27:41.650Z,79.90
2017-06-17T03:30:09.145Z,79.80
2017-06-17T03:32:36.633Z,79.80
2017-06-17T03:35:04.141Z,80.00
2017-06-17T03:37:31.629Z,80.10
2017-06-17T03:39:59.137Z,80.00
2017-06-17T03:42:26.629Z,80.20
2017-06-17T03:44:54.118Z,80.10
2017-06-17T03:47:21.636Z,80.00
2017-06-17T03:49:49.112Z,80.10
2017-06-17T03:52:16.640Z,80.00
2017-06-17T03:54:45.053Z,80.10
2017-06-17T03:57:12.549Z,80.00
2017-06-17T03:59:40.450Z,79.80
2017-06-17T04:02:07.952Z,79.80
2017-06-17T04:04:35.446Z,79.80
2017-06-17T04:07:02.953Z,79.80
2017-06-17T04:09:30.453Z,79.70
2017-06-17T04:11:57.993Z,79.40
2017-06-17T04:14:25.496Z,79.40
2017-06-17T04:16:53.007Z,79.40
2017-06-17T04:19:20.913Z,79.40
2017-06-17T04:21:48.422Z,79.40
2017-06-17T04:24:16.852Z,79.50
2017-06-17T04:26:44.353Z,79.40
2017-06-17T04:29:11.857Z,79.40
2017-06-17T04:31:41.305Z,79.40
2017-06-17T04:34:08.801Z,79.30
2017-06-17T04:36:36.318Z,79.00
2017-06-17T04:39:03.823Z,79.10
2017-06-17T04:41:32.265Z,78.70
2017-06-17T04:43:59.761Z,79.10
2017-06-17T04:46:27.253Z,78.70
2017-06-17T04:48:56.687Z,78.50
2017-06-17T04:51:24.198Z,78.50
2017-06-17T04:53:51.694Z,78.40
2017-06-17T04:56:20.098Z,78.50
2017-06-17T04:58:49.925Z,78.10
2017-06-17T05:01:17.426Z,78.10
2017-06-17T05:03:44.930Z,78.10
2017-06-17T05:06:12.430Z,78.40
2017-06-17T05:08:39.934Z,78.10
2017-06-17T05:11:07.437Z,78.30
2017-06-17T05:13:34.933Z,78.70
2017-06-17T05:16:04.350Z,78.60
2017-06-17T05:18:32.245Z,78.30
2017-06-17T05:20:59.737Z,78.30
2017-06-17T05:23:27.242Z,78.10
2017-06-17T05:25:54.742Z,77.70
2017-06-17T05:28:22.229Z,77.90
2017-06-17T05:30:49.735Z,77.60
2017-06-17T05:33:18.122Z,77.60
2017-06-17T05:35:45.618Z,77.50
2017-06-17T05:38:13.110Z,77.30
2017-06-17T05:40:40.617Z,77.80
2017-06-17T05:43:08.150Z,77.80
2017-06-17T05:45:35.638Z,77.80
2017-06-17T05:48:04.061Z,77.40
2017-06-17T05:50:31.558Z,77.10
2017-06-17T05:52:59.049Z,76.80
2017-06-17T05:55:26.546Z,76.70
2017-06-17T05:57:54.050Z,76.50
2017-06-17T06:00:21.546Z,76.50
2017-06-17T06:02:49.063Z,76.10
2017-06-17T06:05:16.561Z,76.00
2017-06-17T06:07:44.446Z,76.40
2017-06-17T06:10:13.866Z,76.40
2017-06-17T06:12:42.279Z,75.80
2017-06-17T06:15:09.787Z,76.30
2017-06-17T06:17:37.297Z,75.70
2017-06-17T06:20:04.793Z,75.80
2017-06-17T06:22:32.306Z,75.40
2017-06-17T06:24:59.810Z,75.60
2017-06-17T06:27:29.309Z,75.20
2017-06-17T06:29:56.816Z,75.40
2017-06-17T06:32:24.309Z,75.60
2017-06-17T06:34:51.809Z,75.60
2017-06-17T06:37:19.318Z,75.20
2017-06-17T06:39:48.750Z,74.70
2017-06-17T06:42:16.245Z,75.10
2017-06-17T06:44:43.746Z,74.90
2017-06-17T06:47:11.249Z,74.90
2017-06-17T06:49:38.750Z,75.00
2017-06-17T06:52:06.251Z,75.20
2017-06-17T06:54:33.749Z,75.20
2017-06-17T06:57:01.249Z,74.40
2017-06-17T06:59:28.753Z,74.40
2017-06-17T07:01:56.255Z,74.40
2017-06-17T07:04:23.749Z,74.80
2017-06-17T07:06:51.249Z,74.70
2017-06-17T07:09:19.137Z,74.10
2017-06-17T07:11:46.638Z,74.10
2017-06-17T07:14:14.124Z,74.50
2017-06-17T07:16:43.582Z,74.50
2017-06-17T07:19:11.077Z,74.20
2017-06-17T07:21:38.566Z,73.80
2017-06-17T07:24:06.457Z,74.10
2017-06-17T07:26:34.907Z,74.10
2017-06-17T07:29:03.685Z,73.70
2017-06-17T07:31:31.590Z,73.70
2017-06-17T07:33:59.097Z,73.70
2017-06-17T07:36:27.530Z,73.60
2017-06-17T07:38:55.029Z,74.00
2017-06-17T07:41:22.529Z,74.10
2017-06-17T07:43:50.029Z,74.10
2017-06-17T07:46:17.538Z,73.70
2017-06-17T07:48:45.054Z,73.60
2017-06-17T07:51:12.550Z,73.20
2017-06-17T07:53:40.049Z,73.50
2017-06-17T07:56:07.541Z,73.30
2017-06-17T07:58:36.341Z,73.60
2017-06-17T08:01:03.849Z,73.60
2017-06-17T08:03:31.346Z,73.60
2017-06-17T08:05:58.833Z,73.10
2017-06-17T08:08:26.330Z,72.50
2017-06-17T08:10:53.830Z,72.80
2017-06-17T08:13:21.325Z,72.40
2017-06-17T08:15:49.725Z,72.80
2017-06-17T08:18:17.229Z,73.00
2017-06-17T08:20:44.734Z,73.10
2017-06-17T08:23:14.151Z,73.30
2017-06-17T08:25:41.650Z,73.10
2017-06-17T08:28:09.149Z,73.10
2017-06-17T08:30:36.653Z,73.50
2017-06-17T08:33:04.152Z,72.30
2017-06-17T08:35:31.650Z,72.70
2017-06-17T08:37:59.545Z,72.10
2017-06-17T08:40:27.124Z,72.10
2017-06-17T08:42:54.628Z,72.20
2017-06-17T08:45:24.058Z,72.20
2017-06-17T08:47:52.437Z,71.30
2017-06-17T08:50:19.942Z,72.80
2017-06-17T08:52:47.425Z,72.20
2017-06-17T08:55:14.918Z,71.80
2017-06-17T08:57:42.399Z,72.30
2017-06-17T09:00:10.061Z,71.70
2017-06-17T09:02:37.554Z,72.60
2017-06-17T09:05:05.904Z,72.00
2017-06-17T09:07:33.410Z,72.20
2017-06-17T09:10:02.235Z,71.80
2017-06-17T09:12:30.622Z,71.80
2017-06-17T09:14:58.106Z,72.00
2017-06-17T09:17:25.609Z,72.30
2017-06-17T09:19:53.093Z,72.70
2017-06-17T09:22:22.526Z,72.30
2017-06-17T09:24:50.005Z,71.70
2017-06-17T09:27:17.514Z,72.60
2017-06-17T09:29:45.005Z,71.90
2017-06-17T09:32:12.550Z,71.60
2017-06-17T09:34:40.057Z,71.40
2017-06-17T09:37:08.426Z,71.70
2017-06-17T09:39:35.913Z,71.90
2017-06-17T09:42:03.417Z,72.20
2017-06-17T09:44:31.335Z,72.40
2017-06-17T09:46:58.847Z,72.40
2017-06-17T09:49:26.361Z,72.30
2017-06-17T09:51:53.833Z,72.60
2017-06-17T09:54:22.237Z,72.40
2017-06-17T09:56:50.134Z,72.60
2017-06-17T09:59:17.618Z,72.60
2017-06-17T10:01:45.110Z,72.40
2017-06-17T10:04:12.577Z,72.50
2017-06-17T10:06:40.470Z,71.90
2017-06-17T10:09:07.971Z,71.90
2017-06-17T10:11:35.510Z,72.30
2017-06-17T10:14:02.989Z,72.70
2017-06-17T10:16:30.486Z,71.90
2017-06-17T10:18:57.973Z,71.90
2017-06-17T10:21:25.474Z,72.80
2017-06-17T10:23:53.886Z,71.70
2017-06-17T10:26:23.354Z,71.60
2017-06-17T10:28:51.810Z,71.50
2017-06-17T10:31:19.343Z,71.90
2017-06-17T10:33:46.821Z,72.00
2017-06-17T10:36:14.317Z,71.00
2017-06-17T10:38:41.814Z,71.20
2017-06-17T10:41:09.310Z,71.60
2017-06-17T10:43:37.194Z,71.00
2017-06-17T10:46:04.724Z,71.20
2017-06-17T10:48:32.206Z,71.10
2017-06-17T10:50:59.697Z,71.90
2017-06-17T10:53:27.207Z,71.10
2017-06-17T10:55:54.702Z,71.30
2017-06-17T10:58:22.186Z,71.70
2017-06-17T11:00:49.697Z,70.80
2017-06-17T11:03:17.569Z,71.80
2017-06-17T11:05:45.082Z,71.80
2017-06-17T11:08:12.550Z,71.40
2017-06-17T11:10:40.022Z,71.20
2017-06-17T11:13:07.521Z,71.10
2017-06-17T11:15:35.005Z,71.10
2017-06-17T11:18:02.518Z,71.10
2017-06-17T11:20:30.011Z,70.80
2017-06-17T11:22:58.430Z,71.00
2017-06-17T11:25:26.855Z,70.80
2017-06-17T11:27:54.346Z,71.80
2017-06-17T11:30:21.857Z,71.90
2017-06-17T11:32:49.978Z,71.10
2017-06-17T11:35:17.462Z,71.80
2017-06-17T11:37:44.981Z,72.40
2017-06-17T11:40:12.471Z,71.80
2017-06-17T11:42:40.967Z,71.70
2017-06-17T11:45:08.470Z,72.30
2017-06-17T11:47:35.952Z,71.90
2017-06-17T11:50:03.469Z,72.20
2017-06-17T11:52:30.946Z,73.00
2017-06-17T11:54:58.497Z,72.40
2017-06-17T11:57:25.990Z,72.30
2017-06-17T11:59:53.489Z,72.20
2017-06-17T12:02:20.999Z,71.50
2017-06-17T12:04:48.490Z,72.50
2017-06-17T12:07:16.947Z,71.90
2017-06-17T12:09:44.854Z,72.70
2017-06-17T12:12:12.329Z,72.70
2017-06-17T12:14:41.745Z,72.50
2017-06-17T12:17:09.232Z,72.40
2017-06-17T12:19:36.726Z,72.30
2017-06-17T12:22:04.238Z,72.30
2017-06-17T12:24:31.719Z,71.90
2017-06-17T12:26:59.629Z,72.20
2017-06-17T12:29:27.097Z,72.20
2017-06-17T12:31:54.578Z,72.90
2017-06-17T12:34:22.089Z,72.50
2017-06-17T12:36:49.562Z,72.20
2017-06-17T12:39:17.429Z,72.10
2017-06-17T12:41:45.308Z,72.30
2017-06-17T12:44:13.157Z,72.20
2017-06-17T12:46:41.585Z,72.70
2017-06-17T12:49:09.474Z,72.50
2017-06-17T12:51:36.948Z,72.50
2017-06-17T12:54:04.438Z,72.80
2017-06-17T12:56:31.919Z,72.40
2017-06-17T12:59:01.735Z,73.20
2017-06-17T13:01:29.302Z,73.20
2017-06-17T13:03:56.774Z,73.00
2017-06-17T13:06:25.432Z,73.20
2017-06-17T13:08:53.005Z,72.70
2017-06-17T13:11:20.483Z,72.60
2017-06-17T13:13:48.032Z,72.60
2017-06-17T13:16:15.509Z,73.70
2017-06-17T13:18:42.983Z,73.10
2017-06-17T13:21:10.483Z,73.60
2017-06-17T13:23:38.354Z,73.70
2017-06-17T13:26:05.857Z,73.70
2017-06-17T13:28:33.342Z,73.30
2017-06-17T13:31:00.818Z,73.00
2017-06-17T13:33:28.701Z,73.20
2017-06-17T13:35:56.185Z,73.20
2017-06-17T13:38:23.703Z,72.90
2017-06-17T13:40:51.177Z,72.90
2017-06-17T13:43:18.714Z,73.30
2017-06-17T13:45:46.650Z,73.80
2017-06-17T13:48:14.179Z,73.80
2017-06-17T13:50:41.677Z,73.50
2017-06-17T13:53:09.173Z,73.60
2017-06-17T13:55:36.654Z,73.50
2017-06-17T13:58:04.170Z,73.80
2017-06-17T14:00:31.642Z,73.70
2017-06-17T14:02:59.125Z,73.40
2017-06-17T14:05:26.614Z,73.70
2017-06-17T14:07:54.126Z,73.90
2017-06-17T14:10:21.600Z,73.80
2017-06-17T14:12:49.094Z,74.10
2017-06-17T14:15:16.606Z,74.50
2017-06-17T14:17:44.162Z,74.40
2017-06-17T14:20:11.970Z,74.60
2017-06-17T14:22:39.557Z,74.70
2017-06-17T14:25:08.055Z,75.00
2017-06-17T14:27:35.632Z,74.90
2017-06-17T14:30:03.171Z,74.50
2017-06-17T14:32:30.691Z,74.60
2017-06-17T14:34:58.622Z,74.30
2017-06-17T14:37:28.132Z,74.30
2017-06-17T14:39:55.678Z,74.30
2017-06-17T14:42:23.226Z,74.20
2017-06-17T14:44:50.747Z,74.40
2017-06-17T14:47:18.259Z,74.20
2017-06-17T14:49:45.838Z,74.30
2017-06-17T14:52:13.326Z,74.50
2017-06-17T14:54:41.306Z,74.60
2017-06-17T14:57:08.823Z,74.60
2017-06-17T14:59:36.327Z,74.90
2017-06-17T15:02:03.908Z,75.00
2017-06-17T15:04:31.434Z,74.90
2017-06-17T15:06:59.026Z,75.30
2017-06-17T15:09:26.579Z,75.40
2017-06-17T15:11:54.123Z,75.20
2017-06-17T15:14:21.650Z,75.20
2017-06-17T15:16:49.195Z,75.20
2017-06-17T15:19:16.738Z,75.70
2017-06-17T15:21:44.284Z,75.20
2017-06-17T15:24:11.834Z,75.60
2017-06-17T15:26:39.452Z,75.00
2017-06-17T15:29:07.000Z,75.20
2017-06-17T15:31:34.566Z,75.50
2017-06-17T15:34:03.461Z,75.40
2017-06-17T15:36:30.986Z,75.40
2017-06-17T15:38:58.623Z,75.50
2017-06-17T15:41:26.138Z,75.40
2017-06-17T15:43:53.731Z,75.80
2017-06-17T15:46:21.261Z,76.20
2017-06-17T15:48:49.189Z,76.10
2017-06-17T15:51:16.778Z,76.10
2017-06-17T15:53:44.322Z,76.10
2017-06-17T15:56:11.906Z,75.50
2017-06-17T15:58:39.456Z,75.30
2017-06-17T16:01:07.959Z,75.70
2017-06-17T16:03:35.505Z,75.70
2017-06-17T16:06:03.052Z,75.50
2017-06-17T16:08:30.598Z,75.80
2017-06-17T16:10:58.094Z,75.70
2017-06-17T16:13:25.661Z,75.40
2017-06-17T16:15:55.152Z,75.50
2017-06-17T16:18:22.667Z,75.30
2017-06-17T16:20:50.246Z,75.20
2017-06-17T16:23:17.792Z,75.40
2017-06-17T16:25:45.327Z,75.70
2017-06-17T16:28:12.884Z,75.70
2017-06-17T16:30:40.404Z,75.30
2017-06-17T16:33:08.025Z,75.50
2017-06-17T16:35:35.552Z,75.20
2017-06-17T16:38:03.071Z,75.10
2017-06-17T16:40:30.590Z,74.70
2017-06-17T16:42:58.113Z,75.10
2017-06-17T16:45:25.626Z,74.50
2017-06-17T16:47:53.553Z,73.80
2017-06-17T16:50:21.099Z,73.80
2017-06-17T16:52:48.666Z,73.70
2017-06-17T16:55:16.214Z,73.10
2017-06-17T16:57:44.673Z,73.20
2017-06-17T17:00:12.228Z,73.50
2017-06-17T17:02:40.729Z,73.20
2017-06-17T17:05:08.253Z,72.90
2017-06-17T17:07:36.180Z,73.10
2017-06-17T17:10:03.713Z,73.00
2017-06-17T17:12:31.270Z,73.20
2017-06-17T17:14:58.787Z,73.40
2017-06-17T17:17:26.319Z,73.80
2017-06-17T17:19:53.854Z,74.20
2017-06-17T17:22:21.369Z,74.40
2017-06-17T17:24:48.889Z,74.50
2017-06-17T17:27:16.466Z,74.70
2017-06-17T17:29:44.025Z,74.70
2017-06-17T17:32:11.575Z,75.90
2017-06-17T17:34:39.130Z,74.70
2017-06-17T17:37:06.687Z,74.90
2017-06-17T17:39:35.164Z,75.20
2017-06-17T17:42:02.748Z,74.80
2017-06-17T17:44:30.278Z,74.80
2017-06-17T17:46:57.793Z,75.00
2017-06-17T17:49:25.339Z,75.00
2017-06-17T17:51:53.862Z,75.00
2017-06-17T17:54:21.408Z,75.50
2017-06-17T17:56:48.951Z,75.80
2017-06-17T17:59:16.486Z,75.90
2017-06-17T18:01:45.999Z,75.90
2017-06-17T18:04:13.503Z,76.00
2017-06-17T18:06:41.052Z,75.90
2017-06-17T18:09:08.637Z,75.80
2017-06-17T18:11:36.189Z,75.80
2017-06-17T18:14:03.724Z,75.80
2017-06-17T18:16:31.251Z,75.80
2017-06-17T18:18:59.726Z,75.90
2017-06-17T18:21:27.288Z,76.10
2017-06-17T18:23:54.847Z,76.10
2017-06-17T18:26:22.376Z,76.20
2017-06-17T18:28:49.900Z,76.50
2017-06-17T18:31:17.909Z,76.40
2017-06-17T18:33:45.388Z,76.50
2017-06-17T18:36:12.877Z,76.50
2017-06-17T18:38:40.367Z,76.60
2017-06-17T18:41:07.877Z,76.60
2017-06-17T18:43:35.369Z,76.60
2017-06-17T18:46:02.877Z,76.60
2017-06-17T18:48:31.334Z,76.40
2017-06-17T18:50:59.232Z,76.50
2017-06-17T18:53:26.721Z,76.50
2017-06-17T18:55:55.190Z,76.60
2017-06-17T18:58:22.801Z,76.60
2017-06-17T19:00:50.697Z,76.60
2017-06-17T19:03:18.181Z,76.60
2017-06-17T19:05:47.625Z,76.60
2017-06-17T19:08:15.098Z,76.60
2017-06-17T19:10:42.614Z,76.70
2017-06-17T19:13:10.109Z,76.70
2017-06-17T19:15:38.007Z,77.40
2017-06-17T19:18:05.506Z,77.40
2017-06-17T19:20:33.048Z,77.50
2017-06-17T19:23:00.554Z,77.80
2017-06-17T19:25:30.012Z,78.00
2017-06-17T19:27:57.493Z,78.30
2017-06-17T19:30:24.995Z,78.40
2017-06-17T19:32:52.498Z,78.30
2017-06-17T19:35:21.946Z,78.70
2017-06-17T19:37:49.429Z,78.70
2017-06-17T19:40:16.937Z,79.10
2017-06-17T19:42:44.530Z,79.00
2017-06-17T19:45:12.045Z,79.20
2017-06-17T19:47:39.547Z,79.00
2017-06-17T19:50:07.026Z,78.60
2017-06-17T19:52:34.553Z,78.70
2017-06-17T19:55:02.037Z,79.00
2017-06-17T19:57:29.529Z,79.80
2017-06-17T19:59:57.033Z,79.60
2017-06-17T20:02:24.560Z,79.70
2017-06-17T20:04:52.082Z,79.20
2017-06-17T20:07:19.570Z,79.40
2017-06-17T20:09:47.498Z,79.60
2017-06-17T20:12:14.989Z,79.50
2017-06-17T20:14:43.773Z,79.80
2017-06-17T20:17:11.285Z,79.80
2017-06-17T20:19:38.765Z,80.30
2017-06-17T20:22:11.870Z,80.10
2017-06-17T20:24:40.709Z,80.00
2017-06-17T20:27:08.210Z,80.00
2017-06-17T20:29:35.724Z,80.50
2017-06-17T20:32:03.214Z,80.50
2017-06-17T20:34:30.750Z,80.30
2017-06-17T20:36:58.273Z,80.30
2017-06-17T20:39:25.789Z,80.70
2017-06-17T20:41:54.233Z,80.30
2017-06-17T20:44:21.753Z,80.20
2017-06-17T20:46:49.675Z,80.30
2017-06-17T20:49:17.159Z,80.30
2017-06-17T20:51:44.661Z,80.50
2017-06-17T20:54:12.168Z,80.60
2017-06-17T20:56:39.717Z,80.90
2017-06-17T20:59:08.146Z,81.00
2017-06-17T21:01:35.638Z,81.00
2017-06-17T21:04:03.145Z,80.50
2017-06-17T21:06:30.640Z,80.60
2017-06-17T21:08:58.153Z,80.60
2017-06-17T21:11:25.633Z,81.20
2017-06-17T21:13:53.149Z,81.20
2017-06-17T21:16:20.629Z,80.70
2017-06-17T21:18:48.509Z,81.00
2017-06-17T21:21:16.062Z,81.00
2017-06-17T21:23:43.965Z,81.50
2017-06-17T21:26:11.449Z,81.50
2017-06-17T21:28:38.979Z,81.10
2017-06-17T21:31:06.462Z,80.90
2017-06-17T21:33:33.961Z,81.00
2017-06-17T21:36:01.476Z,81.30
2017-06-17T21:38:30.929Z,81.50
2017-06-17T21:40:58.435Z,81.40
2017-06-17T21:43:25.960Z,81.60
2017-06-17T21:45:53.451Z,81.80
2017-06-17T21:48:22.897Z,82.00
2017-06-17T21:50:50.381Z,81.50
2017-06-17T21:53:17.889Z,81.50
2017-06-17T21:55:45.427Z,82.10
2017-06-17T21:58:12.926Z,81.80
2017-06-17T22:00:40.806Z,82.00
2017-06-17T22:03:08.318Z,82.00
2017-06-17T22:05:35.797Z,81.90
2017-06-17T22:08:03.302Z,81.90
2017-06-17T22:10:30.809Z,81.80
2017-06-17T22:13:00.257Z,81.60
2017-06-17T22:15:27.785Z,81.30
2017-06-17T22:17:56.682Z,81.30
2017-06-17T22:20:24.169Z,81.10
2017-06-17T22:22:53.654Z,81.00
2017-06-17T22:25:21.150Z,81.70
2017-06-17T22:27:48.661Z,81.70
2017-06-17T22:30:16.151Z,81.90
2017-06-17T22:32:43.662Z,81.90
2017-06-17T22:35:11.150Z,82.30
2017-06-17T22:37:40.608Z,82.50
2017-06-17T22:40:09.126Z,82.50
2017-06-17T22:42:36.621Z,82.40
2017-06-17T22:45:04.102Z,82.40
2017-06-17T22:47:32.969Z,83.10
2017-06-17T22:50:00.469Z,83.10
2017-06-17T22:52:27.992Z,83.10
2017-06-17T22:54:55.469Z,83.20
2017-06-17T22:57:23.001Z,82.80
2017-06-17T22:59:50.490Z,82.80
2017-06-17T23:02:17.997Z,82.50
2017-06-17T23:04:45.482Z,82.90
2017-06-17T23:07:12.977Z,83.10
2017-06-17T23:09:42.486Z,83.20
2017-06-17T23:12:10.014Z,83.20
2017-06-17T23:14:37.947Z,83.10
2017-06-17T23:17:05.502Z,83.10
2017-06-17T23:19:33.062Z,82.90
2017-06-17T23:22:01.581Z,83.00
2017-06-17T23:24:29.117Z,83.50
2017-06-17T23:26:56.706Z,83.20
2017-06-17T23:29:24.269Z,83.50
2017-06-17T23:31:51.814Z,83.00
2017-06-17T23:34:19.359Z,83.30
2017-06-17T23:36:46.914Z,83.30
2017-06-17T23:39:14.434Z,83.30
2017-06-17T23:41:41.998Z,83.50
2017-06-17T23:44:09.548Z,83.70
2017-06-17T23:46:37.111Z,83.30
2017-06-17T23:49:04.658Z,83.30
2017-06-17T23:51:32.186Z,83.50
2017-06-17T23:54:00.137Z,83.80
2017-06-17T23:56:27.658Z,83.80
2017-06-17T23:58:55.186Z,83.80
